WMKM/MKZ METAR and TAF weather

Enter ICAO airport designator
Station Type Date Time Source
WMKM METAR 2023/12/09 10:00 UTC NOAA

WMKM 091000Z 25003KT 170V340 9999 FEW017CB 30/26 Q1008


Station Type Date Time Source
WMKM Decoded METAR 2023/12/09 10:00 UTC NOAA

Malacca, Malaysia (WMKM) 02-16N 102-15E 9M
Dec 09, 2023 - 05:00 AM EST / 2023.12.09 1000 UTC
Wind: from the WSW (250 degrees) at 3 MPH (3 KT) (direction variable):0
Visibility: greater than 7 mile(s):0
Sky conditions: mostly clear
Weather: Cumulonimbus clouds observed
Temperature: 86 F (30 C)
Heat index: 99.3 F (37.4 C):1
Dew Point: 78 F (26 C)
Relative Humidity: 79%
Pressure (altimeter): 29.77 in. Hg (1008 hPa)
ob: WMKM 091000Z 25003KT 170V340 9999 FEW017CB 30/26 Q1008
cycle: 10

Station Type Date Time Source
WMKM TAF 2023/12/09 06:00 UTC NOAA

TAF WMKM 090500Z 0906/1006 VRB02KT 9999 FEW020
TEMPO 0906/0911 05007KT 4000 TSRA FEW017CB SCT018

Example: see airport list